createdAt,value
2019-03-18T00:01:18.781Z,3.07
2019-03-18T00:03:45.938Z,2.81
2019-03-18T00:06:13.066Z,2.83
2019-03-18T00:08:40.587Z,2.74
2019-03-18T00:11:07.698Z,2.63
2019-03-18T00:13:34.801Z,2.66
2019-03-18T00:16:01.844Z,2.63
2019-03-18T00:18:29.479Z,2.59
2019-03-18T00:20:56.571Z,2.51
2019-03-18T00:23:23.643Z,2.60
2019-03-18T00:25:50.682Z,2.57
2019-03-18T00:28:18.128Z,2.68
2019-03-18T00:30:45.158Z,2.69
2019-03-18T00:33:12.230Z,2.80
2019-03-18T00:35:39.633Z,2.61
2019-03-18T00:38:06.688Z,2.54
2019-03-18T00:40:33.754Z,2.52
2019-03-18T00:43:01.471Z,2.58
2019-03-18T00:45:28.615Z,2.53
2019-03-18T00:47:55.665Z,2.57
2019-03-18T00:50:22.754Z,2.56
2019-03-18T00:52:49.831Z,2.62
2019-03-18T00:55:16.969Z,2.74
2019-03-18T00:57:45.076Z,2.64
2019-03-18T01:00:12.741Z,2.63
2019-03-18T01:02:39.799Z,2.78
2019-03-18T01:05:07.383Z,2.88
2019-03-18T01:07:34.533Z,2.85
2019-03-18T01:10:01.576Z,2.89
2019-03-18T01:12:29.202Z,2.89
2019-03-18T01:14:56.268Z,2.92
2019-03-18T01:17:23.309Z,3.00
2019-03-18T01:19:50.679Z,2.93
2019-03-18T01:22:17.736Z,2.95
2019-03-18T01:24:44.816Z,2.97
2019-03-18T01:27:11.923Z,2.99
2019-03-18T01:29:38.996Z,2.97
2019-03-18T01:32:06.013Z,2.97
2019-03-18T01:34:33.109Z,2.96
2019-03-18T01:37:00.160Z,3.00
2019-03-18T01:39:27.189Z,2.95
2019-03-18T01:41:54.352Z,3.00
2019-03-18T01:44:21.413Z,3.00
2019-03-18T01:46:48.939Z,2.95
2019-03-18T01:49:15.962Z,2.97
2019-03-18T01:51:42.992Z,3.02
2019-03-18T01:54:10.015Z,2.94
2019-03-18T01:56:37.126Z,2.96
2019-03-18T01:59:04.196Z,2.96
2019-03-18T02:01:31.225Z,2.98
2019-03-18T02:03:58.330Z,2.94
2019-03-18T02:06:25.372Z,2.94
2019-03-18T02:08:52.409Z,2.96
2019-03-18T02:11:19.460Z,3.02
2019-03-18T02:13:47.621Z,2.97
2019-03-18T02:16:14.632Z,3.00
2019-03-18T02:18:41.748Z,2.99
2019-03-18T02:21:08.749Z,3.06
2019-03-18T02:23:36.107Z,3.07
2019-03-18T02:26:03.173Z,3.00
2019-03-18T02:28:31.519Z,3.09
2019-03-18T02:30:58.558Z,3.14
2019-03-18T02:33:26.878Z,3.02
2019-03-18T02:35:54.282Z,2.92
2019-03-18T02:38:22.828Z,2.82
2019-03-18T02:40:49.914Z,2.61
2019-03-18T02:43:18.030Z,2.61
2019-03-18T02:45:45.077Z,2.55
2019-03-18T02:48:12.189Z,2.52
2019-03-18T02:50:39.784Z,2.53
2019-03-18T02:53:07.926Z,2.41
2019-03-18T02:55:35.001Z,2.43
2019-03-18T02:58:02.092Z,2.45
2019-03-18T03:00:29.283Z,2.42
2019-03-18T03:02:56.368Z,2.45
2019-03-18T03:05:23.835Z,2.47
2019-03-18T03:07:50.863Z,2.48
2019-03-18T03:10:17.899Z,2.53
2019-03-18T03:12:46.004Z,2.51
2019-03-18T03:15:13.335Z,2.49
2019-03-18T03:17:40.412Z,2.52
2019-03-18T03:20:08.059Z,2.46
2019-03-18T03:22:35.115Z,2.45
2019-03-18T03:25:02.254Z,2.51
2019-03-18T03:27:36.954Z,2.50
2019-03-18T03:30:04.815Z,2.59
2019-03-18T03:32:31.905Z,2.84
2019-03-18T03:34:59.602Z,3.00
2019-03-18T03:37:26.615Z,3.21
2019-03-18T03:39:53.638Z,3.11
2019-03-18T03:42:21.805Z,3.21
2019-03-18T03:44:48.911Z,3.20
2019-03-18T03:47:17.117Z,3.41
2019-03-18T03:49:44.557Z,3.46
2019-03-18T03:52:11.620Z,3.56
2019-03-18T03:54:38.761Z,3.55
2019-03-18T03:57:06.951Z,3.66
2019-03-18T03:59:34.074Z,3.68
2019-03-18T04:02:02.349Z,3.67
2019-03-18T04:04:29.485Z,3.61
2019-03-18T04:06:57.151Z,3.58
2019-03-18T04:09:24.409Z,3.55
2019-03-18T04:11:51.414Z,3.60
2019-03-18T04:14:18.912Z,3.61
2019-03-18T04:17:00.903Z,3.81
2019-03-18T04:19:14.885Z,3.92
2019-03-18T04:21:42.282Z,3.96
2019-03-18T04:24:44.480Z,3.97
2019-03-18T04:27:13.069Z,4.04
2019-03-18T04:29:40.106Z,3.95
2019-03-18T04:32:07.558Z,3.83
2019-03-18T04:34:34.654Z,3.71
2019-03-18T04:37:02.762Z,3.68
2019-03-18T04:39:30.823Z,3.67
2019-03-18T04:41:57.992Z,3.65
2019-03-18T04:44:25.732Z,3.65
2019-03-18T04:46:53.085Z,3.85
2019-03-18T04:49:20.182Z,3.93
2019-03-18T04:51:47.541Z,3.82
2019-03-18T04:54:14.703Z,3.75
2019-03-18T04:56:41.755Z,3.92
2019-03-18T04:59:09.269Z,3.95
2019-03-18T05:01:36.403Z,3.95
2019-03-18T05:04:03.496Z,3.92
2019-03-18T05:06:31.608Z,4.11
2019-03-18T05:08:59.049Z,4.14
2019-03-18T05:11:27.897Z,4.12
2019-03-18T05:13:55.266Z,4.14
2019-03-18T05:16:23.600Z,4.14
2019-03-18T05:18:52.470Z,4.12
2019-03-18T05:21:20.728Z,4.20
2019-03-18T05:23:48.206Z,4.32
2019-03-18T05:26:15.313Z,4.28
2019-03-18T05:28:42.376Z,4.24
2019-03-18T05:31:09.733Z,4.29
2019-03-18T05:33:36.801Z,4.33
2019-03-18T05:36:03.832Z,4.35
2019-03-18T05:38:31.224Z,4.37
2019-03-18T05:40:58.567Z,4.48
2019-03-18T05:43:25.614Z,4.50
2019-03-18T05:45:52.655Z,4.37
2019-03-18T05:48:20.113Z,4.41
2019-03-18T05:50:48.307Z,4.52
2019-03-18T05:53:15.332Z,4.49
2019-03-18T05:55:42.713Z,4.24
2019-03-18T05:58:09.732Z,3.97
2019-03-18T06:00:36.747Z,3.73
2019-03-18T06:07:36.633Z,3.70
2019-03-18T06:10:04.845Z,4.07
2019-03-18T06:12:31.904Z,4.33
2019-03-18T06:15:00.463Z,4.36
2019-03-18T06:17:28.208Z,4.24
2019-03-18T06:19:55.325Z,4.18
2019-03-18T06:22:22.476Z,4.08
2019-03-18T06:24:50.082Z,3.96
2019-03-18T06:27:19.114Z,4.07
2019-03-18T06:29:46.214Z,4.22
2019-03-18T06:32:13.842Z,4.52
2019-03-18T06:34:40.924Z,4.93
2019-03-18T06:37:08.180Z,5.66
2019-03-18T06:39:35.707Z,6.40
2019-03-18T06:42:02.786Z,6.81
2019-03-18T06:44:29.996Z,7.20
2019-03-18T06:46:57.098Z,7.36
2019-03-18T06:49:26.598Z,7.30
2019-03-18T06:51:53.751Z,7.21
2019-03-18T06:54:21.282Z,6.81
2019-03-18T06:56:51.713Z,6.39
2019-03-18T06:59:18.732Z,5.98
2019-03-18T07:01:45.798Z,5.93
2019-03-18T07:04:12.868Z,6.18
2019-03-18T07:06:43.202Z,6.09
2019-03-18T07:09:13.666Z,6.03
2019-03-18T07:11:40.726Z,6.17
2019-03-18T07:14:09.213Z,6.28
2019-03-18T07:16:37.498Z,6.56
2019-03-18T07:19:15.438Z,6.89
2019-03-18T07:21:42.621Z,6.70
2019-03-18T07:24:11.452Z,6.76
2019-03-18T07:26:38.477Z,6.52
2019-03-18T07:29:08.975Z,6.67
2019-03-18T07:31:51.089Z,6.89
2019-03-18T07:34:19.392Z,7.16
2019-03-18T07:36:46.450Z,7.23
2019-03-18T07:39:13.485Z,7.37
2019-03-18T07:41:40.537Z,7.36
2019-03-18T07:44:08.103Z,7.40
2019-03-18T07:46:35.233Z,7.41
2019-03-18T07:49:02.357Z,7.47
2019-03-18T07:51:29.838Z,7.15
2019-03-18T07:53:56.834Z,7.00
2019-03-18T07:56:23.888Z,6.89
2019-03-18T07:58:50.936Z,6.86
2019-03-18T08:01:17.983Z,6.95
2019-03-18T08:03:45.092Z,7.04
2019-03-18T08:06:13.301Z,7.27
2019-03-18T08:08:40.429Z,7.38
2019-03-18T08:11:07.464Z,7.39
2019-03-18T08:13:34.563Z,7.72
2019-03-18T08:16:01.966Z,7.85
2019-03-18T08:18:29.381Z,8.37
2019-03-18T08:20:57.636Z,8.65
2019-03-18T08:23:24.703Z,8.57
2019-03-18T08:25:52.737Z,8.23
2019-03-18T08:28:19.768Z,8.19
2019-03-18T08:30:46.830Z,7.95
2019-03-18T08:33:14.043Z,7.91
2019-03-18T08:35:41.081Z,7.63
2019-03-18T08:38:08.117Z,7.68
2019-03-18T08:40:35.330Z,7.84
2019-03-18T08:43:02.712Z,7.91
2019-03-18T08:45:29.819Z,7.44
2019-03-18T08:47:58.779Z,7.66
2019-03-18T08:50:25.830Z,7.67
2019-03-18T08:52:53.265Z,7.38
2019-03-18T08:55:20.763Z,7.06
2019-03-18T08:57:47.809Z,6.95
2019-03-18T09:00:15.793Z,7.01
2019-03-18T09:02:43.109Z,7.69
2019-03-18T09:05:10.846Z,8.09
2019-03-18T09:07:37.875Z,8.54
2019-03-18T09:10:06.298Z,9.02
2019-03-18T09:12:33.374Z,9.10
2019-03-18T09:15:00.407Z,8.71
2019-03-18T09:17:27.515Z,9.09
2019-03-18T09:19:54.584Z,8.80
2019-03-18T09:22:21.630Z,9.09
2019-03-18T09:24:49.201Z,8.88
2019-03-18T09:27:16.255Z,8.89
2019-03-18T09:29:43.395Z,9.00
2019-03-18T09:32:10.882Z,8.93
2019-03-18T09:34:37.924Z,9.02
2019-03-18T09:37:15.473Z,9.39
2019-03-18T09:39:43.031Z,9.69
2019-03-18T09:42:10.175Z,9.76
2019-03-18T09:44:37.548Z,9.22
2019-03-18T09:47:04.616Z,9.08
2019-03-18T09:49:31.839Z,8.88
2019-03-18T09:51:59.297Z,8.03
2019-03-18T09:54:28.753Z,8.33
2019-03-18T09:56:55.837Z,7.83
2019-03-18T09:59:23.660Z,8.05
2019-03-18T10:01:51.057Z,8.57
2019-03-18T10:04:18.087Z,9.49
2019-03-18T10:06:48.398Z,9.23
2019-03-18T10:09:15.668Z,8.86
2019-03-18T10:11:42.758Z,8.40
2019-03-18T10:14:10.138Z,7.65
2019-03-18T10:16:38.440Z,7.72
2019-03-18T10:19:05.565Z,7.97
2019-03-18T10:21:33.036Z,8.92
2019-03-18T10:24:00.082Z,9.78
2019-03-18T10:26:28.815Z,9.81
2019-03-18T10:28:55.969Z,9.11
2019-03-18T10:31:23.939Z,8.64
2019-03-18T10:33:51.024Z,6.95
2019-03-18T10:36:23.148Z,6.12
2019-03-18T10:38:52.749Z,6.28
2019-03-18T10:41:19.348Z,6.49
2019-03-18T10:43:46.586Z,6.55
2019-03-18T10:46:15.500Z,6.84
2019-03-18T10:48:42.869Z,7.55
2019-03-18T10:51:10.103Z,7.78
2019-03-18T10:53:37.241Z,9.20
2019-03-18T10:56:08.113Z,10.45
2019-03-18T10:58:33.896Z,10.90
2019-03-18T11:01:01.322Z,10.87
2019-03-18T11:03:28.355Z,12.47
2019-03-18T11:05:55.511Z,13.91
2019-03-18T11:08:24.412Z,13.50
2019-03-18T11:10:51.502Z,13.85
2019-03-18T11:13:19.089Z,16.49
2019-03-18T11:15:47.407Z,17.74
2019-03-18T11:18:14.932Z,15.67
2019-03-18T11:20:42.154Z,12.64
2019-03-18T11:23:09.492Z,10.69
2019-03-18T11:25:36.549Z,11.13
2019-03-18T11:28:03.660Z,13.74
2019-03-18T11:30:30.706Z,14.10
2019-03-18T11:32:57.857Z,12.63
2019-03-18T11:35:24.943Z,12.29
2019-03-18T11:37:52.573Z,11.86
2019-03-18T11:40:20.176Z,10.60
2019-03-18T11:42:47.277Z,9.48
2019-03-18T11:45:14.748Z,8.16
2019-03-18T11:47:43.121Z,7.40
2019-03-18T11:50:11.812Z,6.80
2019-03-18T11:52:39.122Z,6.99
2019-03-18T11:55:09.382Z,6.79
2019-03-18T11:57:36.761Z,6.61
2019-03-18T12:00:05.626Z,6.83
2019-03-18T12:02:32.759Z,8.41
2019-03-18T12:05:00.512Z,12.86
2019-03-18T12:07:27.594Z,14.30
2019-03-18T12:09:54.759Z,12.47
2019-03-18T12:12:22.150Z,12.51
2019-03-18T12:14:49.183Z,13.88
2019-03-18T12:17:16.449Z,14.50
2019-03-18T12:19:44.008Z,14.72
2019-03-18T12:22:11.076Z,13.70
2019-03-18T12:24:38.187Z,14.15
2019-03-18T12:27:05.269Z,14.79
2019-03-18T12:29:32.475Z,16.37
2019-03-18T12:32:00.280Z,17.99
2019-03-18T12:34:27.464Z,17.27
2019-03-18T12:36:54.543Z,18.09
2019-03-18T12:39:24.601Z,19.09
2019-03-18T12:41:51.047Z,21.13
2019-03-18T12:44:18.101Z,18.33
2019-03-18T12:46:45.929Z,19.03
2019-03-18T12:49:13.077Z,18.16
2019-03-18T12:51:40.255Z,17.88
2019-03-18T12:54:09.089Z,18.65
2019-03-18T12:56:36.239Z,18.35
2019-03-18T12:59:03.702Z,17.76
2019-03-18T13:01:30.858Z,18.33
2019-03-18T13:03:58.082Z,19.86
2019-03-18T13:06:27.372Z,19.30
2019-03-18T13:08:54.456Z,18.80
2019-03-18T13:11:23.977Z,17.27
2019-03-18T13:13:51.191Z,16.91
2019-03-18T13:16:18.445Z,18.17
2019-03-18T13:18:45.661Z,17.14
2019-03-18T13:21:13.074Z,16.79
2019-03-18T13:23:40.246Z,18.18
2019-03-18T13:26:07.382Z,19.42
2019-03-18T13:28:35.646Z,17.46
2019-03-18T13:31:02.803Z,16.33
2019-03-18T13:33:29.935Z,11.91
2019-03-18T13:36:00.503Z,11.47
2019-03-18T13:38:27.583Z,14.95
2019-03-18T13:40:54.740Z,19.09
2019-03-18T13:43:22.191Z,22.31
2019-03-18T13:45:55.135Z,19.24
2019-03-18T13:48:19.473Z,18.30
2019-03-18T13:50:46.651Z,17.75
2019-03-18T13:53:13.996Z,16.66
2019-03-18T13:55:41.094Z,17.20
2019-03-18T13:58:08.259Z,17.64
2019-03-18T14:00:41.790Z,15.97
2019-03-18T14:06:45.851Z,13.14
2019-03-18T14:09:12.951Z,14.85
2019-03-18T14:11:40.046Z,16.48
2019-03-18T14:14:07.315Z,13.84
2019-03-18T14:16:35.495Z,11.41
2019-03-18T14:19:02.936Z,13.81
2019-03-18T14:21:33.557Z,13.31
2019-03-18T14:24:01.042Z,12.94
2019-03-18T14:26:28.149Z,12.78
2019-03-18T14:28:55.239Z,12.46
2019-03-18T14:31:22.311Z,11.95
2019-03-18T14:33:49.367Z,10.44
2019-03-18T14:36:16.446Z,11.59
2019-03-18T14:38:52.205Z,14.62
2019-03-18T14:41:19.901Z,15.62
2019-03-18T14:43:46.967Z,16.32
2019-03-18T14:46:14.787Z,15.90
2019-03-18T14:48:43.294Z,17.17
2019-03-18T14:51:10.385Z,16.41
2019-03-18T14:53:37.425Z,15.43
2019-03-18T14:56:04.586Z,16.58
2019-03-18T14:58:32.974Z,17.78
2019-03-18T15:01:01.450Z,15.73
2019-03-18T15:03:28.823Z,17.82
2019-03-18T15:05:56.609Z,19.48
2019-03-18T15:08:23.711Z,16.85
2019-03-18T15:10:50.842Z,12.39
2019-03-18T15:13:30.067Z,14.21
2019-03-18T15:15:47.667Z,15.33
2019-03-18T15:18:15.059Z,14.59
2019-03-18T15:20:42.104Z,15.64
2019-03-18T15:23:10.312Z,13.00
2019-03-18T15:25:38.013Z,15.10
2019-03-18T15:28:05.049Z,17.59
2019-03-18T15:30:32.133Z,16.73
2019-03-18T15:32:59.800Z,15.40
2019-03-18T15:35:26.891Z,16.57
2019-03-18T15:37:54.161Z,16.28
2019-03-18T15:40:21.339Z,14.20
2019-03-18T15:42:48.530Z,14.87
2019-03-18T15:45:16.263Z,13.22
2019-03-18T15:47:44.564Z,12.27
2019-03-18T15:50:13.917Z,11.61
2019-03-18T15:52:42.094Z,11.23
2019-03-18T15:55:09.443Z,10.57
2019-03-18T15:57:36.728Z,9.97
2019-03-18T16:00:05.738Z,9.70
2019-03-18T16:02:34.058Z,9.66
2019-03-18T16:05:01.094Z,9.68
2019-03-18T16:07:28.861Z,9.63
2019-03-18T16:09:56.019Z,9.53
2019-03-18T16:12:24.406Z,9.59
2019-03-18T16:14:51.866Z,9.50
2019-03-18T16:17:19.026Z,8.84
2019-03-18T16:19:46.129Z,8.50
2019-03-18T16:22:23.380Z,9.93
2019-03-18T16:24:44.121Z,12.39
2019-03-18T16:27:11.654Z,13.57
2019-03-18T16:29:38.745Z,13.99
2019-03-18T16:32:11.124Z,13.96
2019-03-18T16:34:34.985Z,12.47
2019-03-18T16:37:03.251Z,15.00
2019-03-18T16:39:30.973Z,14.78
2019-03-18T16:41:58.096Z,13.76
2019-03-18T16:44:26.961Z,15.08
2019-03-18T16:46:54.083Z,16.48
2019-03-18T16:49:21.257Z,15.33
2019-03-18T16:51:48.414Z,15.38
2019-03-18T16:54:15.852Z,14.13
2019-03-18T16:56:42.920Z,11.10
2019-03-18T16:59:10.016Z,9.74
2019-03-18T17:01:37.749Z,8.90
2019-03-18T17:04:05.009Z,8.48
2019-03-18T17:06:33.280Z,8.27
2019-03-18T17:09:00.371Z,8.25
2019-03-18T17:11:27.615Z,8.09
2019-03-18T17:13:54.666Z,7.96
2019-03-18T17:16:22.176Z,8.02
2019-03-18T17:18:49.266Z,8.17
2019-03-18T17:21:16.321Z,8.20
2019-03-18T17:23:43.452Z,8.24
2019-03-18T17:26:11.997Z,8.24
2019-03-18T17:28:39.390Z,8.13
2019-03-18T17:31:07.211Z,8.02
2019-03-18T17:33:34.399Z,7.87
2019-03-18T17:36:03.749Z,7.90
2019-03-18T17:38:30.540Z,7.82
2019-03-18T17:40:57.712Z,7.85
2019-03-18T17:43:24.855Z,8.05
2019-03-18T17:45:52.310Z,8.11
2019-03-18T17:48:19.578Z,8.16
2019-03-18T17:50:46.625Z,8.13
2019-03-18T17:53:16.597Z,8.09
2019-03-18T17:55:43.683Z,8.10
2019-03-18T17:58:10.742Z,8.02
2019-03-18T18:00:45.717Z,8.07
2019-03-18T18:03:18.918Z,8.02
2019-03-18T18:05:46.873Z,8.05
2019-03-18T18:08:14.010Z,7.99
2019-03-18T18:10:43.517Z,7.98
2019-03-18T18:13:11.302Z,8.00
2019-03-18T18:15:38.413Z,8.11
2019-03-18T18:18:05.462Z,8.20
2019-03-18T18:20:33.079Z,8.21
2019-03-18T18:23:00.307Z,8.18
2019-03-18T18:25:27.827Z,8.29
2019-03-18T18:27:55.468Z,8.34
2019-03-18T18:30:22.582Z,8.26
2019-03-18T18:32:50.045Z,8.56
2019-03-18T18:35:17.662Z,8.84
2019-03-18T18:37:44.980Z,9.10
2019-03-18T18:40:14.713Z,9.20
2019-03-18T18:42:41.991Z,9.08
2019-03-18T18:45:11.396Z,8.69
2019-03-18T18:47:39.437Z,8.52
2019-03-18T18:50:07.029Z,8.32
2019-03-18T18:52:34.451Z,7.99
2019-03-18T18:55:01.659Z,7.98
2019-03-18T18:57:28.811Z,7.81
2019-03-18T18:59:56.433Z,7.79
2019-03-18T19:02:23.539Z,7.79
2019-03-18T19:04:51.872Z,8.06
2019-03-18T19:07:19.483Z,7.91
2019-03-18T19:09:46.757Z,8.34
2019-03-18T19:12:14.028Z,8.27
2019-03-18T19:14:41.309Z,7.93
2019-03-18T19:17:10.623Z,8.00
2019-03-18T19:19:37.951Z,8.20
2019-03-18T19:22:05.061Z,8.31
2019-03-18T19:24:32.599Z,7.92
2019-03-18T19:27:00.270Z,7.74
2019-03-18T19:29:28.677Z,7.40
2019-03-18T19:31:56.053Z,7.15
2019-03-18T19:34:25.562Z,7.15
2019-03-18T19:36:53.846Z,6.97
2019-03-18T19:39:20.903Z,6.89
2019-03-18T19:41:49.193Z,6.77
2019-03-18T19:44:16.671Z,6.64
2019-03-18T19:46:44.106Z,6.87
2019-03-18T19:49:14.384Z,7.02
2019-03-18T19:51:43.849Z,7.15
2019-03-18T19:54:12.923Z,7.33
2019-03-18T19:56:40.088Z,7.41
2019-03-18T19:59:07.949Z,7.67
2019-03-18T20:01:36.799Z,7.78
2019-03-18T20:04:04.110Z,7.78
2019-03-18T20:06:31.545Z,7.90
2019-03-18T20:08:58.629Z,7.83
2019-03-18T20:11:25.732Z,7.87
2019-03-18T20:13:53.268Z,7.78
2019-03-18T20:16:20.367Z,7.35
2019-03-18T20:18:49.973Z,7.18
2019-03-18T20:21:16.720Z,7.00
2019-03-18T20:23:44.295Z,6.97
2019-03-18T20:26:11.414Z,6.88
2019-03-18T20:28:39.601Z,6.70
2019-03-18T20:31:25.317Z,6.66
2019-03-18T20:33:46.224Z,6.53
2019-03-18T20:36:13.339Z,6.46
2019-03-18T20:38:40.543Z,6.40
2019-03-18T20:41:07.980Z,6.31
2019-03-18T20:43:35.206Z,6.18
2019-03-18T20:46:02.327Z,6.16
2019-03-18T20:48:31.700Z,6.11
2019-03-18T20:50:59.019Z,6.04
2019-03-18T20:53:26.192Z,5.87
2019-03-18T20:55:53.789Z,5.72
2019-03-18T20:58:20.951Z,5.64
2019-03-18T21:00:48.214Z,5.47
2019-03-18T21:03:15.759Z,5.44
2019-03-18T21:05:42.840Z,5.46
2019-03-18T21:08:10.042Z,5.50
2019-03-18T21:10:37.243Z,5.54
2019-03-18T21:13:04.375Z,5.52
2019-03-18T21:15:31.940Z,5.41
2019-03-18T21:17:59.774Z,5.31
2019-03-18T21:20:26.897Z,5.31
2019-03-18T21:22:54.105Z,5.35
2019-03-18T21:25:21.488Z,5.27
2019-03-18T21:27:49.805Z,5.20
2019-03-18T21:30:17.390Z,5.34
2019-03-18T21:32:44.832Z,5.27
2019-03-18T21:35:13.085Z,5.20
2019-03-18T21:37:42.010Z,4.99
2019-03-18T21:40:10.607Z,4.97
2019-03-18T21:42:39.574Z,4.90
2019-03-18T21:45:08.948Z,4.73
2019-03-18T21:47:37.184Z,4.76
2019-03-18T21:50:04.810Z,4.75
2019-03-18T21:52:31.964Z,4.73
2019-03-18T21:55:00.828Z,4.73
2019-03-18T21:57:27.866Z,4.62
2019-03-18T21:59:57.442Z,4.66
2019-03-18T22:02:24.600Z,4.62
2019-03-18T22:04:53.425Z,4.66
2019-03-18T22:07:20.569Z,4.74
2019-03-18T22:09:47.727Z,4.71
2019-03-18T22:12:15.048Z,4.62
2019-03-18T22:14:42.203Z,4.40
2019-03-18T22:17:09.258Z,4.44
2019-03-18T22:19:36.569Z,4.62
2019-03-18T22:22:03.902Z,4.76
2019-03-18T22:24:30.980Z,4.97
2019-03-18T22:27:00.332Z,5.06
2019-03-18T22:29:27.447Z,5.10
2019-03-18T22:31:54.607Z,4.72
2019-03-18T22:34:22.053Z,4.73
2019-03-18T22:36:51.720Z,4.51
2019-03-18T22:39:18.791Z,4.50
2019-03-18T22:41:47.761Z,4.62
2019-03-18T22:44:18.047Z,4.75
2019-03-18T22:46:45.101Z,4.81
2019-03-18T22:49:12.181Z,4.79
2019-03-18T22:51:40.503Z,4.55
2019-03-18T22:54:08.664Z,4.42
2019-03-18T22:56:37.180Z,4.49
2019-03-18T22:59:04.304Z,4.60
2019-03-18T23:01:32.681Z,4.70
2019-03-18T23:03:59.962Z,4.70
2019-03-18T23:06:27.170Z,4.45
2019-03-18T23:08:54.230Z,4.45
2019-03-18T23:11:21.292Z,4.46
2019-03-18T23:13:49.113Z,4.46
2019-03-18T23:16:16.196Z,4.42
2019-03-18T23:18:43.279Z,4.01
2019-03-18T23:21:10.847Z,3.44
2019-03-18T23:23:37.891Z,3.41
2019-03-18T23:26:05.073Z,3.03
2019-03-18T23:28:33.473Z,2.95
2019-03-18T23:31:01.870Z,3.12
2019-03-18T23:33:28.936Z,2.97
2019-03-18T23:35:57.222Z,2.49
2019-03-18T23:38:24.273Z,2.36
2019-03-18T23:40:51.528Z,2.33
2019-03-18T23:43:18.624Z,2.44
2019-03-18T23:45:45.680Z,2.43
2019-03-18T23:48:12.751Z,2.09
2019-03-18T23:50:39.889Z,2.17
2019-03-18T23:53:06.920Z,2.45
2019-03-18T23:55:33.974Z,2.80
2019-03-18T23:58:01.120Z,3.06
